createdAt,value
2023-03-26T00:02:07.120Z,99112.59
2023-03-26T00:04:36.013Z,99109.93
2023-03-26T00:07:05.308Z,99110.94
2023-03-26T00:09:34.095Z,99104.09
2023-03-26T00:12:03.244Z,99105.48
2023-03-26T00:14:32.910Z,99105.23
2023-03-26T00:17:02.720Z,99104.59
2023-03-26T00:19:31.189Z,99100.05
2023-03-26T00:22:00.909Z,99101.78
2023-03-26T00:24:30.921Z,99097.09
2023-03-26T00:26:59.984Z,99097.16
2023-03-26T00:29:28.827Z,99099.66
2023-03-26T00:31:57.691Z,99097.43
2023-03-26T00:34:27.107Z,99095.61
2023-03-26T00:36:56.238Z,99095.92
2023-03-26T00:39:26.221Z,99097.66
2023-03-26T00:41:55.748Z,99092.91
2023-03-26T00:44:24.414Z,99093.98
2023-03-26T00:46:53.716Z,99091.82
2023-03-26T00:49:22.715Z,99086.96
2023-03-26T00:51:51.408Z,99087.42
2023-03-26T00:54:20.183Z,99081.72
2023-03-26T00:56:48.907Z,99083.48
2023-03-26T00:59:18.090Z,99082.87
2023-03-26T01:01:47.506Z,99081.65
2023-03-26T01:04:31.707Z,99077.65
2023-03-26T01:07:10.360Z,99081.67
2023-03-26T01:09:45.876Z,99080.25
2023-03-26T01:12:18.720Z,99077.27
2023-03-26T01:14:50.993Z,99084.05
2023-03-26T01:17:19.929Z,99085.72
2023-03-26T01:19:57.420Z,99082.53
2023-03-26T01:22:27.734Z,99076.73
2023-03-26T01:24:57.013Z,99075.88
2023-03-26T01:27:47.361Z,99073.77
2023-03-26T01:30:41.830Z,99078.23
2023-03-26T01:33:30.531Z,99082.73
2023-03-26T01:36:07.490Z,99084.67
2023-03-26T01:39:00.643Z,99091.36
2023-03-26T01:41:35.349Z,99087.13
2023-03-26T01:44:15.609Z,99087.50
2023-03-26T01:46:45.651Z,99085.23
2023-03-26T01:49:14.201Z,99090.34
2023-03-26T01:51:43.095Z,99085.55
2023-03-26T01:54:20.048Z,99090.81
2023-03-26T01:57:10.130Z,99089.42
2023-03-26T02:00:16.782Z,99087.04
2023-03-26T02:02:55.348Z,99085.98
2023-03-26T02:05:37.760Z,99078.41
2023-03-26T02:08:24.374Z,99083.44
2023-03-26T02:10:57.690Z,99083.89
2023-03-26T02:13:26.852Z,99084.53
2023-03-26T02:16:06.799Z,99079.27
2023-03-26T02:18:41.892Z,99074.08
2023-03-26T02:21:20.449Z,99075.76
2023-03-26T02:23:58.209Z,99073.64
2023-03-26T02:26:26.803Z,99074.41
2023-03-26T02:29:10.894Z,99070.27
2023-03-26T02:31:40.459Z,99069.14
2023-03-26T02:34:09.148Z,99070.83
2023-03-26T02:36:39.100Z,99073.34
2023-03-26T02:39:07.773Z,99069.65
2023-03-26T02:41:41.049Z,99067.95
2023-03-26T02:44:11.612Z,99073.92
2023-03-26T02:46:58.930Z,99066.71
2023-03-26T02:49:43.177Z,99060.12
2023-03-26T02:52:17.405Z,99062.25
2023-03-26T02:54:46.501Z,99054.64
2023-03-26T02:57:20.518Z,99059.41
2023-03-26T03:00:09.120Z,99049.91
2023-03-26T03:02:40.742Z,99051.24
2023-03-26T03:05:35.219Z,99051.19
2023-03-26T03:08:24.464Z,99052.51
2023-03-26T03:11:16.992Z,99053.57
2023-03-26T03:13:51.459Z,99049.97
2023-03-26T03:16:38.273Z,99052.20
2023-03-26T03:19:13.545Z,99052.34
2023-03-26T03:21:42.444Z,99058.21
2023-03-26T03:24:14.353Z,99061.14
2023-03-26T03:26:47.882Z,99065.70
2023-03-26T03:29:36.809Z,99070.77
2023-03-26T03:32:43.897Z,99074.16
2023-03-26T03:35:13.096Z,99077.33
2023-03-26T03:37:43.613Z,99074.83
2023-03-26T03:40:13.228Z,99078.46
2023-03-26T03:42:42.422Z,99075.36
2023-03-26T03:45:11.722Z,99076.50
2023-03-26T03:47:59.186Z,99081.14
2023-03-26T03:50:37.873Z,99082.47
2023-03-26T03:53:22.231Z,99086.00
2023-03-26T03:55:57.631Z,99090.76
2023-03-26T03:58:34.931Z,99091.42
2023-03-26T04:01:11.343Z,99092.77
2023-03-26T04:04:02.183Z,99094.61
2023-03-26T04:06:46.796Z,99096.73
2023-03-26T04:09:16.185Z,99102.14
2023-03-26T04:11:46.427Z,99102.00
2023-03-26T04:14:31.620Z,99107.71
2023-03-26T04:17:05.700Z,99109.21
2023-03-26T04:19:37.242Z,99112.02
2023-03-26T04:22:10.928Z,99116.16
2023-03-26T04:24:50.497Z,99106.47
2023-03-26T04:27:43.545Z,99116.30
2023-03-26T04:30:42.775Z,99116.85
2023-03-26T04:33:40.420Z,99114.02
2023-03-26T04:36:10.509Z,99113.80
2023-03-26T04:38:45.671Z,99119.63
2023-03-26T04:41:15.704Z,99117.52
2023-03-26T04:43:50.882Z,99116.23
2023-03-26T04:46:43.867Z,99109.92
2023-03-26T04:49:27.242Z,99108.34
2023-03-26T04:51:56.164Z,99106.70
2023-03-26T04:54:47.024Z,99108.86
2023-03-26T04:57:26.159Z,99109.34
2023-03-26T05:00:16.738Z,99107.63
2023-03-26T05:02:50.783Z,99106.41
2023-03-26T05:05:20.462Z,99108.11
2023-03-26T05:07:50.366Z,99110.99
2023-03-26T05:10:20.837Z,99109.10
2023-03-26T05:12:56.761Z,99106.80
2023-03-26T05:15:31.705Z,99103.02
2023-03-26T05:18:16.542Z,99102.87
2023-03-26T05:20:49.075Z,99101.52
2023-03-26T05:23:17.620Z,99098.75
2023-03-26T05:26:03.841Z,99102.25
2023-03-26T05:28:32.815Z,99106.40
2023-03-26T05:31:08.398Z,99108.93
2023-03-26T05:33:39.859Z,99109.23
2023-03-26T05:36:15.670Z,99106.08
2023-03-26T05:38:49.766Z,99109.97
2023-03-26T05:41:41.299Z,99104.08
2023-03-26T05:44:10.407Z,99108.67
2023-03-26T05:46:39.202Z,99110.70
2023-03-26T05:49:08.231Z,99112.14
2023-03-26T05:51:40.661Z,99113.41
2023-03-26T05:54:28.196Z,99113.83
2023-03-26T05:57:24.112Z,99120.64
2023-03-26T06:00:12.360Z,99117.39
2023-03-26T06:02:48.283Z,99116.52
2023-03-26T06:05:37.398Z,99114.58
2023-03-26T06:08:12.084Z,99117.23
2023-03-26T06:10:41.960Z,99115.02
2023-03-26T06:13:10.794Z,99118.33
2023-03-26T06:15:41.718Z,99115.88
2023-03-26T06:18:25.712Z,99118.09
2023-03-26T06:21:14.770Z,99123.36
2023-03-26T06:23:51.973Z,99117.16
2023-03-26T06:26:48.616Z,99121.69
2023-03-26T06:29:36.092Z,99120.90
2023-03-26T06:32:20.447Z,99122.72
2023-03-26T06:35:12.421Z,99127.64
2023-03-26T06:37:42.801Z,99123.12
2023-03-26T06:40:13.677Z,99119.33
2023-03-26T06:43:11.261Z,99116.67
2023-03-26T06:46:21.455Z,99124.73
2023-03-26T06:49:09.217Z,99126.19
2023-03-26T06:51:55.285Z,99122.14
2023-03-26T06:54:44.444Z,99126.46
2023-03-26T06:57:32.841Z,99130.23
2023-03-26T07:00:43.945Z,99138.59
2023-03-26T07:03:32.287Z,99134.76
2023-03-26T07:06:20.926Z,99132.16
2023-03-26T07:09:09.094Z,99134.33
2023-03-26T07:11:43.517Z,99138.59
2023-03-26T07:14:39.157Z,99136.77
2023-03-26T07:17:26.040Z,99132.58
2023-03-26T07:20:01.696Z,99135.41
2023-03-26T07:22:38.691Z,99141.11
2023-03-26T07:25:36.875Z,99135.29
2023-03-26T07:28:17.881Z,99136.02
2023-03-26T07:31:22.771Z,99132.46
2023-03-26T07:34:26.726Z,99129.13
2023-03-26T07:37:41.095Z,99127.35
2023-03-26T07:41:01.782Z,99130.90
2023-03-26T07:44:11.899Z,99124.66
2023-03-26T07:47:04.950Z,99125.52
2023-03-26T07:49:43.754Z,99123.65
2023-03-26T07:52:24.718Z,99119.46
2023-03-26T07:55:16.445Z,99118.89
2023-03-26T07:58:25.850Z,99117.41
2023-03-26T08:01:44.596Z,99119.12
2023-03-26T08:04:39.889Z,99123.11
2023-03-26T08:07:52.035Z,99119.93
2023-03-26T08:11:03.827Z,99116.00
2023-03-26T08:14:04.181Z,99111.62
2023-03-26T08:16:52.390Z,99111.27
2023-03-26T08:19:38.919Z,99113.52
2023-03-26T08:22:17.588Z,99111.13
2023-03-26T08:25:25.863Z,99107.05
2023-03-26T08:28:09.606Z,99105.24
2023-03-26T08:30:42.087Z,99106.47
2023-03-26T08:33:12.978Z,99095.58
2023-03-26T08:35:42.903Z,99090.98
2023-03-26T08:38:17.565Z,99082.05
2023-03-26T08:40:58.638Z,99086.46
2023-03-26T08:43:53.335Z,99086.81
2023-03-26T08:46:36.270Z,99084.92
2023-03-26T08:49:56.893Z,99080.50
2023-03-26T08:52:35.243Z,99085.71
2023-03-26T08:58:59.665Z,99079.71
2023-03-26T09:01:47.016Z,99073.56
2023-03-26T09:04:47.345Z,99074.11
2023-03-26T09:08:01.918Z,99077.96
2023-03-26T09:10:52.016Z,99080.42
2023-03-26T09:13:57.408Z,99071.84
2023-03-26T09:16:43.862Z,99079.15
2023-03-26T09:19:47.914Z,99078.27
2023-03-26T09:22:53.683Z,99079.57
2023-03-26T09:26:00.457Z,99080.36
2023-03-26T09:29:00.286Z,99084.09
2023-03-26T09:31:59.854Z,99078.80
2023-03-26T09:34:30.475Z,99079.77
2023-03-26T09:37:14.986Z,99077.00
2023-03-26T09:40:18.564Z,99080.63
2023-03-26T09:43:16.343Z,99087.05
2023-03-26T09:46:00.380Z,99087.52
2023-03-26T09:48:46.386Z,99088.21
2023-03-26T09:51:43.874Z,99088.90
2023-03-26T09:54:51.499Z,99093.26
2023-03-26T09:57:51.500Z,99087.61
2023-03-26T10:00:37.076Z,99089.85
2023-03-26T10:03:08.739Z,99084.64
2023-03-26T10:05:57.772Z,99077.44
2023-03-26T10:08:52.773Z,99079.80
2023-03-26T10:11:43.093Z,99074.42
2023-03-26T10:14:32.031Z,99070.48
2023-03-26T10:17:17.201Z,99066.83
2023-03-26T10:20:24.467Z,99065.27
2023-03-26T10:23:16.059Z,99064.94
2023-03-26T10:25:47.352Z,99069.11
2023-03-26T10:28:25.261Z,99064.74
2023-03-26T10:31:12.535Z,99065.25
2023-03-26T10:33:53.768Z,99059.76
2023-03-26T10:36:34.846Z,99061.47
2023-03-26T10:39:37.637Z,99058.77
2023-03-26T10:42:30.693Z,99054.05
2023-03-26T10:45:34.067Z,99054.92
2023-03-26T10:48:28.230Z,99051.60
2023-03-26T10:51:17.737Z,99049.05
2023-03-26T10:54:07.346Z,99032.98
2023-03-26T10:56:49.963Z,99032.14
2023-03-26T10:59:19.652Z,99034.20
2023-03-26T11:02:19.972Z,99034.77
2023-03-26T11:05:15.745Z,99020.17
2023-03-26T11:08:33.767Z,99019.41
2023-03-26T11:11:36.951Z,99016.80
2023-03-26T11:14:33.799Z,99018.85
2023-03-26T11:17:39.232Z,99014.77
2023-03-26T11:20:39.136Z,99014.21
2023-03-26T11:23:35.072Z,99020.26
2023-03-26T11:26:30.797Z,99012.77
2023-03-26T11:29:31.400Z,99017.60
2023-03-26T11:32:03.898Z,99020.89
2023-03-26T11:34:39.412Z,99019.31
2023-03-26T11:37:19.302Z,99015.36
2023-03-26T11:39:57.123Z,99012.62
2023-03-26T11:42:29.192Z,99017.53
2023-03-26T11:45:07.642Z,99014.63
2023-03-26T11:47:48.377Z,99019.92
2023-03-26T11:50:42.519Z,99022.80
2023-03-26T11:53:18.270Z,99022.95
2023-03-26T11:55:57.313Z,99017.04
2023-03-26T11:58:39.705Z,99016.85
2023-03-26T12:01:17.040Z,99011.45
2023-03-26T12:03:59.146Z,99005.15
2023-03-26T12:06:29.733Z,99003.52
2023-03-26T12:08:59.645Z,98999.00
2023-03-26T12:11:35.508Z,98997.64
2023-03-26T12:14:06.644Z,98993.54
2023-03-26T12:16:37.496Z,98990.45
2023-03-26T12:19:22.472Z,98993.64
2023-03-26T12:21:53.521Z,98991.20
2023-03-26T12:24:29.657Z,98990.23
2023-03-26T12:27:07.048Z,98990.97
2023-03-26T12:29:36.997Z,98980.17
2023-03-26T12:32:16.900Z,98973.05
2023-03-26T12:34:48.261Z,98972.86
2023-03-26T12:37:38.969Z,98966.98
2023-03-26T12:40:25.731Z,98966.50
2023-03-26T12:44:50.230Z,98963.10
2023-03-26T12:47:26.465Z,98958.20
2023-03-26T12:48:50.428Z,98953.55
2023-03-26T12:51:32.186Z,98946.31
2023-03-26T12:54:25.162Z,98944.17
2023-03-26T12:57:20.688Z,98939.71
2023-03-26T13:00:01.920Z,98939.91
2023-03-26T13:03:00.647Z,98934.64
2023-03-26T13:05:45.847Z,98934.63
2023-03-26T13:08:58.584Z,98930.73
2023-03-26T13:11:51.084Z,98931.96
2023-03-26T13:14:35.334Z,98929.72
2023-03-26T13:17:17.006Z,98926.95
2023-03-26T13:20:12.890Z,98930.23
2023-03-26T13:22:56.633Z,98930.27
2023-03-26T13:25:38.568Z,98935.27
2023-03-26T13:28:49.330Z,98932.89
2023-03-26T13:31:34.752Z,98930.59
2023-03-26T13:34:23.405Z,98931.31
2023-03-26T13:37:21.489Z,98934.32
2023-03-26T13:39:57.899Z,98931.78
2023-03-26T13:43:11.180Z,98918.98
2023-03-26T13:46:02.934Z,98925.80
2023-03-26T13:48:42.543Z,98926.55
2023-03-26T13:51:37.601Z,98926.33
2023-03-26T13:54:17.648Z,98920.48
2023-03-26T13:56:55.649Z,98919.10
2023-03-26T13:59:50.573Z,98917.29
2023-03-26T14:02:38.027Z,98914.16
2023-03-26T14:05:17.960Z,98913.95
2023-03-26T14:08:01.720Z,98912.02
2023-03-26T14:10:36.857Z,98908.48
2023-03-26T14:13:44.420Z,98909.17
2023-03-26T14:16:21.166Z,98908.91
2023-03-26T14:19:13.714Z,98907.40
2023-03-26T14:22:14.507Z,98903.83
2023-03-26T14:25:12.870Z,98902.56
2023-03-26T14:28:04.714Z,98901.08
2023-03-26T14:30:48.959Z,98896.95
2023-03-26T14:33:48.677Z,98892.71
2023-03-26T14:36:42.534Z,98887.19
2023-03-26T14:39:19.254Z,98894.88
2023-03-26T14:42:26.211Z,98878.66
2023-03-26T14:45:48.851Z,98883.49
2023-03-26T14:48:54.647Z,98883.19
2023-03-26T14:51:52.993Z,98881.80
2023-03-26T14:54:28.808Z,98878.60
2023-03-26T14:57:28.570Z,98883.05
2023-03-26T15:00:34.942Z,98886.50
2023-03-26T15:03:10.131Z,98883.98
2023-03-26T15:06:11.835Z,98881.78
2023-03-26T15:09:25.398Z,98881.84
2023-03-26T15:12:12.923Z,98878.95
2023-03-26T15:15:20.499Z,98883.66
2023-03-26T15:18:21.167Z,98884.42
2023-03-26T15:21:12.029Z,98897.65
2023-03-26T15:24:05.092Z,98895.77
2023-03-26T15:27:11.988Z,98899.27
2023-03-26T15:30:23.803Z,98896.69
2023-03-26T15:33:38.849Z,98887.51
2023-03-26T15:36:17.372Z,98892.56
2023-03-26T15:38:59.248Z,98890.19
2023-03-26T15:42:08.914Z,98888.81
2023-03-26T15:44:54.354Z,98884.06
2023-03-26T15:47:48.014Z,98881.08
2023-03-26T15:50:51.600Z,98862.55
2023-03-26T15:53:34.573Z,98855.76
2023-03-26T15:56:53.352Z,98852.27
2023-03-26T15:59:43.842Z,98848.66
2023-03-26T16:02:38.260Z,98842.13
2023-03-26T16:05:28.301Z,98835.95
2023-03-26T16:08:39.624Z,98839.96
2023-03-26T16:11:13.119Z,98842.55
2023-03-26T16:13:49.994Z,98841.40
2023-03-26T16:16:54.457Z,98841.71
2023-03-26T16:19:24.839Z,98841.06
2023-03-26T16:22:07.997Z,98837.27
2023-03-26T16:24:42.887Z,98839.39
2023-03-26T16:27:15.877Z,98835.98
2023-03-26T16:30:10.614Z,98836.98
2023-03-26T16:32:56.485Z,98835.28
2023-03-26T16:35:40.689Z,98835.67
2023-03-26T16:38:15.121Z,98838.24
2023-03-26T16:41:15.846Z,98834.74
2023-03-26T16:44:02.867Z,98830.56
2023-03-26T16:46:59.221Z,98831.26
2023-03-26T16:49:48.310Z,98836.14
2023-03-26T16:52:59.145Z,98838.83
2023-03-26T16:55:47.989Z,98834.33
2023-03-26T16:58:28.113Z,98834.13
2023-03-26T17:01:21.630Z,98830.52
2023-03-26T17:03:59.351Z,98826.09
2023-03-26T17:07:14.605Z,98826.63
2023-03-26T17:10:02.200Z,98826.45
2023-03-26T17:12:56.676Z,98827.27
2023-03-26T17:15:52.288Z,98828.06
2023-03-26T17:18:51.748Z,98828.45
2023-03-26T17:21:47.087Z,98830.10
2023-03-26T17:24:28.040Z,98829.67
2023-03-26T17:27:48.098Z,98831.16
2023-03-26T17:30:51.901Z,98836.02
2023-03-26T17:33:27.900Z,98841.08
2023-03-26T17:36:13.511Z,98845.10
2023-03-26T17:38:47.996Z,98845.85
2023-03-26T17:42:02.409Z,98848.65
2023-03-26T17:44:43.120Z,98852.02
2023-03-26T17:47:36.505Z,98856.14
2023-03-26T17:50:20.342Z,98854.92
2023-03-26T17:52:49.890Z,98853.86
2023-03-26T17:55:31.530Z,98852.30
2023-03-26T17:58:04.223Z,98852.27
2023-03-26T18:00:43.846Z,98850.59
2023-03-26T18:03:31.281Z,98848.48
2023-03-26T18:06:33.214Z,98851.33
2023-03-26T18:09:17.895Z,98855.00
2023-03-26T18:11:51.265Z,98852.37
2023-03-26T18:14:29.129Z,98853.21
2023-03-26T18:17:00.878Z,98852.21
2023-03-26T18:19:46.170Z,98854.39
2023-03-26T18:22:26.941Z,98857.88
2023-03-26T18:25:00.627Z,98858.98
2023-03-26T18:27:38.754Z,98855.89
2023-03-26T18:30:17.129Z,98853.12
2023-03-26T18:33:14.046Z,98853.80
2023-03-26T18:35:52.299Z,98849.77
2023-03-26T18:38:36.780Z,98845.05
2023-03-26T18:41:31.916Z,98841.85
2023-03-26T18:44:06.451Z,98835.11
2023-03-26T18:46:36.162Z,98836.42
2023-03-26T18:49:06.794Z,98834.23
2023-03-26T18:51:46.356Z,98834.70
2023-03-26T18:54:21.779Z,98838.56
2023-03-26T18:56:52.472Z,98839.11
2023-03-26T18:59:29.821Z,98835.02
2023-03-26T19:02:14.348Z,98827.86
2023-03-26T19:04:47.076Z,98823.23
2023-03-26T19:07:22.693Z,98821.52
2023-03-26T19:09:56.585Z,98824.66
2023-03-26T19:12:33.505Z,98824.58
2023-03-26T19:15:12.644Z,98825.50
2023-03-26T19:17:57.217Z,98825.34
2023-03-26T19:20:32.389Z,98821.79
2023-03-26T19:23:05.613Z,98822.33
2023-03-26T19:25:49.001Z,98819.42
2023-03-26T19:28:28.841Z,98814.73
2023-03-26T19:31:10.849Z,98812.46
2023-03-26T19:33:44.581Z,98812.17
2023-03-26T19:36:18.269Z,98815.98
2023-03-26T19:38:53.612Z,98820.64
2023-03-26T19:41:26.974Z,98819.36
2023-03-26T19:44:01.510Z,98813.59
2023-03-26T19:46:53.940Z,98811.84
2023-03-26T19:49:48.386Z,98810.35
2023-03-26T19:52:27.389Z,98806.48
2023-03-26T19:55:12.673Z,98806.16
2023-03-26T19:57:43.527Z,98801.96
2023-03-26T20:00:16.590Z,98800.58
2023-03-26T20:02:48.125Z,98800.34
2023-03-26T20:05:23.814Z,98796.56
2023-03-26T20:07:58.224Z,98794.20
2023-03-26T20:10:28.732Z,98794.52
2023-03-26T20:12:59.970Z,98789.83
2023-03-26T20:15:33.841Z,98790.17
2023-03-26T20:18:04.545Z,98789.89
2023-03-26T20:20:34.874Z,98774.36
2023-03-26T20:23:04.245Z,98782.97
2023-03-26T20:25:35.397Z,98776.62
2023-03-26T20:28:04.691Z,98769.09
2023-03-26T20:30:37.715Z,98766.29
2023-03-26T20:33:16.988Z,98766.11
2023-03-26T20:35:46.991Z,98768.77
2023-03-26T20:38:17.048Z,98762.94
2023-03-26T20:40:49.510Z,98762.50
2023-03-26T20:43:24.586Z,98761.63
2023-03-26T20:45:54.419Z,98760.25
2023-03-26T20:48:27.371Z,98751.19
2023-03-26T20:50:58.183Z,98742.05
2023-03-26T20:53:28.625Z,98741.34
2023-03-26T20:55:58.143Z,98741.77
2023-03-26T20:58:31.517Z,98744.45
2023-03-26T21:01:02.614Z,98744.91
2023-03-26T21:03:31.778Z,98744.29
2023-03-26T21:06:10.715Z,98742.08
2023-03-26T21:08:43.747Z,98742.63
2023-03-26T21:11:34.891Z,98745.67
2023-03-26T21:14:15.950Z,98754.95
2023-03-26T21:16:49.237Z,98764.89
2023-03-26T21:19:18.561Z,98764.94
2023-03-26T21:22:17.262Z,98769.69
2023-03-26T21:25:15.936Z,98770.16
2023-03-26T21:27:52.266Z,98762.75
2023-03-26T21:30:22.477Z,98755.73
2023-03-26T21:32:51.554Z,98749.91
2023-03-26T21:35:20.795Z,98747.09
2023-03-26T21:37:49.762Z,98744.32
2023-03-26T21:40:22.005Z,98749.88
2023-03-26T21:42:55.898Z,98747.50
2023-03-26T21:45:24.867Z,98743.63
2023-03-26T21:47:53.878Z,98741.39
2023-03-26T21:50:23.825Z,98741.59
2023-03-26T21:52:52.901Z,98739.95
2023-03-26T21:55:24.142Z,98743.82
2023-03-26T21:58:02.148Z,98747.27
2023-03-26T22:00:54.936Z,98743.16
2023-03-26T22:03:47.536Z,98741.92
2023-03-26T22:06:24.791Z,98739.48
2023-03-26T22:08:53.602Z,98741.23
2023-03-26T22:11:25.680Z,98746.10
2023-03-26T22:13:57.427Z,98744.05
2023-03-26T22:16:26.028Z,98742.64
2023-03-26T22:18:55.007Z,98747.52
2023-03-26T22:21:23.700Z,98753.58
2023-03-26T22:23:53.383Z,98750.88
2023-03-26T22:26:24.089Z,98748.92
2023-03-26T22:28:53.822Z,98750.98
2023-03-26T22:31:22.659Z,98756.27
2023-03-26T22:33:51.212Z,98753.19
2023-03-26T22:36:22.141Z,98752.67
2023-03-26T22:38:54.339Z,98751.55
2023-03-26T22:41:23.653Z,98749.92
2023-03-26T22:43:56.861Z,98757.17
2023-03-26T22:46:26.855Z,98761.40
2023-03-26T22:48:57.869Z,98760.22
2023-03-26T22:51:28.198Z,98759.27
2023-03-26T22:53:57.306Z,98755.63
2023-03-26T22:56:25.986Z,98756.66
2023-03-26T22:58:54.764Z,98753.63
2023-03-26T23:01:25.256Z,98756.39
2023-03-26T23:03:55.133Z,98753.41
2023-03-26T23:06:23.691Z,98752.60
2023-03-26T23:08:52.395Z,98754.70
2023-03-26T23:11:22.318Z,98749.09
2023-03-26T23:13:52.018Z,98746.91
2023-03-26T23:16:21.836Z,98741.68
2023-03-26T23:18:54.101Z,98744.38
2023-03-26T23:21:25.845Z,98748.85
2023-03-26T23:23:54.744Z,98747.33
2023-03-26T23:26:24.344Z,98746.13
2023-03-26T23:28:53.040Z,98748.94
2023-03-26T23:31:22.257Z,98754.70
2023-03-26T23:33:51.023Z,98756.21
2023-03-26T23:36:21.181Z,98761.74
2023-03-26T23:38:51.736Z,98765.31
2023-03-26T23:41:23.523Z,98768.85
2023-03-26T23:43:55.695Z,98771.93
2023-03-26T23:46:31.080Z,98769.77
2023-03-26T23:49:02.647Z,98770.52
2023-03-26T23:51:32.692Z,98775.43
2023-03-26T23:54:02.543Z,98775.15
2023-03-26T23:56:32.117Z,98771.88
2023-03-26T23:59:00.914Z,98774.95
